createdAt,value
2019-04-06T00:01:26.789Z,7.50
2019-04-06T00:03:56.421Z,7.50
2019-04-06T00:06:26.027Z,7.50
2019-04-06T00:08:55.766Z,7.50
2019-04-06T00:11:25.411Z,7.50
2019-04-06T00:13:55.130Z,7.50
2019-04-06T00:16:24.839Z,7.50
2019-04-06T00:18:54.431Z,7.50
2019-04-06T00:21:24.570Z,7.50
2019-04-06T00:23:54.435Z,7.50
2019-04-06T00:26:24.455Z,7.50
2019-04-06T00:28:54.411Z,7.50
2019-04-06T00:31:28.439Z,7.50
2019-04-06T00:33:58.018Z,7.50
2019-04-06T00:36:27.628Z,7.50
2019-04-06T00:38:57.279Z,7.50
2019-04-06T00:41:26.886Z,7.50
2019-04-06T00:43:56.467Z,7.50
2019-04-06T00:46:26.095Z,7.50
2019-04-06T00:48:55.654Z,7.50
2019-04-06T00:51:25.211Z,7.60
2019-04-06T00:53:54.784Z,7.60
2019-04-06T00:56:24.378Z,7.60
2019-04-06T00:58:54.045Z,7.60
2019-04-06T01:01:23.664Z,7.60
2019-04-06T01:03:53.311Z,7.60
2019-04-06T01:06:23.425Z,7.60
2019-04-06T01:08:53.082Z,7.70
2019-04-06T01:11:22.752Z,7.70
2019-04-06T01:13:52.318Z,7.70
2019-04-06T01:16:22.108Z,7.70
2019-04-06T01:18:52.296Z,7.70
2019-04-06T01:21:21.885Z,7.70
2019-04-06T01:23:51.567Z,7.70
2019-04-06T01:26:21.080Z,7.60
2019-04-06T01:28:50.704Z,7.60
2019-04-06T01:31:20.403Z,7.60
2019-04-06T01:33:50.003Z,7.60
2019-04-06T01:36:22.894Z,7.60
2019-04-06T01:38:52.511Z,7.60
2019-04-06T01:41:22.447Z,7.60
2019-04-06T01:43:52.233Z,7.60
2019-04-06T01:46:22.028Z,7.60
2019-04-06T01:48:51.799Z,7.60
2019-04-06T01:51:21.383Z,7.60
2019-04-06T01:53:53.081Z,7.60
2019-04-06T01:56:22.578Z,7.60
2019-04-06T01:58:52.179Z,7.60
2019-04-06T02:01:29.368Z,7.40
2019-04-06T02:04:18.297Z,7.60
2019-04-06T02:06:47.790Z,7.70
2019-04-06T02:09:17.382Z,7.70
2019-04-06T02:11:46.919Z,7.70
2019-04-06T02:14:16.662Z,7.70
2019-04-06T02:16:46.338Z,7.80
2019-04-06T02:19:15.881Z,7.70
2019-04-06T02:21:45.459Z,7.80
2019-04-06T02:24:14.986Z,7.80
2019-04-06T02:26:44.643Z,7.70
2019-04-06T02:29:14.404Z,7.70
2019-04-06T02:32:02.061Z,7.70
2019-04-06T02:34:48.552Z,7.70
2019-04-06T02:37:50.915Z,7.70
2019-04-06T02:40:30.500Z,7.70
2019-04-06T02:43:01.887Z,7.70
2019-04-06T02:45:31.591Z,7.70
2019-04-06T02:48:01.242Z,7.70
2019-04-06T02:50:30.969Z,7.70
2019-04-06T02:53:00.540Z,7.70
2019-04-06T02:55:30.225Z,7.70
2019-04-06T02:57:59.865Z,7.70
2019-04-06T03:00:29.571Z,7.60
2019-04-06T03:02:59.215Z,7.70
2019-04-06T03:05:28.853Z,7.80
2019-04-06T03:07:58.502Z,7.80
2019-04-06T03:10:28.246Z,7.80
2019-04-06T03:12:57.933Z,7.70
2019-04-06T03:15:27.737Z,7.70
2019-04-06T03:17:57.413Z,7.80
2019-04-06T03:20:27.073Z,7.80
2019-04-06T03:22:56.714Z,7.80
2019-04-06T03:25:26.395Z,7.80
2019-04-06T03:27:56.209Z,7.80
2019-04-06T03:30:25.891Z,7.80
2019-04-06T03:32:55.648Z,7.80
2019-04-06T03:35:25.336Z,7.80
2019-04-06T03:37:54.974Z,7.80
2019-04-06T03:40:24.631Z,7.80
2019-04-06T03:42:54.331Z,7.90
2019-04-06T03:45:23.938Z,7.90
2019-04-06T03:47:53.661Z,7.90
2019-04-06T03:50:42.635Z,7.90
2019-04-06T03:53:31.575Z,7.80
2019-04-06T03:56:01.222Z,7.80
2019-04-06T03:58:31.027Z,7.80
2019-04-06T04:01:00.854Z,7.70
2019-04-06T04:03:30.549Z,7.80
2019-04-06T04:06:00.254Z,7.70
2019-04-06T04:08:29.967Z,7.80
2019-04-06T04:10:59.786Z,7.70
2019-04-06T04:13:29.368Z,7.60
2019-04-06T04:15:59.037Z,7.60
2019-04-06T04:18:28.558Z,7.60
2019-04-06T04:20:58.270Z,7.60
2019-04-06T04:23:27.944Z,7.60
2019-04-06T04:25:57.578Z,7.60
2019-04-06T04:28:27.406Z,7.50
2019-04-06T04:30:57.089Z,7.60
2019-04-06T04:33:26.799Z,7.60
2019-04-06T04:35:56.382Z,7.50
2019-04-06T04:38:25.981Z,7.50
2019-04-06T04:40:55.648Z,7.40
2019-04-06T04:43:25.649Z,7.40
2019-04-06T04:45:55.554Z,7.40
2019-04-06T04:48:25.404Z,7.50
2019-04-06T04:50:55.188Z,7.50
2019-04-06T04:53:24.785Z,7.60
2019-04-06T04:55:54.423Z,7.60
2019-04-06T04:58:24.187Z,7.60
2019-04-06T05:00:54.209Z,7.60
2019-04-06T05:03:23.996Z,7.60
2019-04-06T05:05:53.619Z,7.70
2019-04-06T05:08:23.174Z,7.70
2019-04-06T05:10:53.205Z,7.80
2019-04-06T05:13:22.871Z,7.70
2019-04-06T05:16:07.747Z,7.80
2019-04-06T05:18:37.690Z,7.80
2019-04-06T05:21:07.363Z,7.90
2019-04-06T05:23:36.998Z,7.90
2019-04-06T05:26:06.947Z,7.90
2019-04-06T05:28:36.522Z,8.00
2019-04-06T05:31:06.276Z,7.90
2019-04-06T05:33:36.405Z,8.00
2019-04-06T05:36:06.449Z,8.00
2019-04-06T05:38:36.028Z,8.00
2019-04-06T05:41:05.796Z,8.00
2019-04-06T05:43:35.471Z,8.00
2019-04-06T05:46:05.219Z,8.10
2019-04-06T05:48:36.862Z,8.10
2019-04-06T05:51:06.229Z,8.10
2019-04-06T05:53:36.118Z,8.10
2019-04-06T05:56:05.900Z,8.10
2019-04-06T05:58:35.795Z,8.20
2019-04-06T06:01:05.459Z,8.30
2019-04-06T06:03:35.307Z,8.30
2019-04-06T06:06:05.060Z,8.30
2019-04-06T06:08:34.678Z,8.30
2019-04-06T06:11:04.515Z,8.30
2019-04-06T06:13:34.087Z,8.40
2019-04-06T06:16:03.793Z,8.50
2019-04-06T06:18:33.642Z,8.50
2019-04-06T06:21:03.409Z,8.50
2019-04-06T06:23:33.190Z,8.50
2019-04-06T06:26:02.845Z,8.50
2019-04-06T06:28:32.710Z,8.50
2019-04-06T06:31:02.926Z,8.60
2019-04-06T06:33:32.599Z,8.60
2019-04-06T06:36:02.256Z,8.70
2019-04-06T06:38:32.147Z,8.80
2019-04-06T06:41:02.488Z,8.70
2019-04-06T06:43:32.245Z,8.90
2019-04-06T06:46:01.963Z,8.90
2019-04-06T06:48:32.018Z,8.90
2019-04-06T06:51:01.852Z,9.00
2019-04-06T06:53:31.574Z,9.00
2019-04-06T06:56:01.236Z,9.10
2019-04-06T06:58:31.266Z,9.10
2019-04-06T07:01:03.104Z,9.20
2019-04-06T07:03:32.304Z,9.20
2019-04-06T07:06:01.933Z,9.30
2019-04-06T07:08:31.953Z,9.30
2019-04-06T07:11:01.669Z,9.30
2019-04-06T07:13:31.246Z,9.40
2019-04-06T07:16:01.047Z,9.40
2019-04-06T07:18:30.792Z,9.50
2019-04-06T07:21:13.267Z,9.60
2019-04-06T07:23:42.867Z,9.60
2019-04-06T07:26:12.519Z,9.70
2019-04-06T07:28:44.994Z,9.90
2019-04-06T07:31:14.597Z,10.10
2019-04-06T07:33:44.438Z,10.20
2019-04-06T07:36:14.220Z,10.20
2019-04-06T07:38:44.647Z,10.40
2019-04-06T07:41:14.831Z,10.60
2019-04-06T07:43:44.571Z,10.80
2019-04-06T07:46:14.176Z,10.70
2019-04-06T07:48:43.838Z,10.70
2019-04-06T07:51:13.759Z,10.70
2019-04-06T07:53:43.418Z,10.90
2019-04-06T07:56:13.544Z,11.00
2019-04-06T07:58:49.523Z,11.10
2019-04-06T08:01:14.768Z,11.30
2019-04-06T08:03:44.420Z,11.50
2019-04-06T08:06:14.259Z,11.70
2019-04-06T08:08:43.774Z,11.90
2019-04-06T08:11:13.446Z,12.30
2019-04-06T08:13:43.230Z,12.70
2019-04-06T08:16:13.152Z,13.30
2019-04-06T08:18:43.014Z,13.60
2019-04-06T08:21:12.619Z,14.20
2019-04-06T08:23:41.496Z,15.20
2019-04-06T08:26:10.757Z,16.40
2019-04-06T08:28:39.647Z,17.60
2019-04-06T08:31:08.271Z,17.90
2019-04-06T08:33:36.887Z,18.20
2019-04-06T08:36:05.839Z,18.50
2019-04-06T08:38:34.713Z,17.70
2019-04-06T08:41:03.515Z,17.50
2019-04-06T08:43:32.230Z,17.60
2019-04-06T08:46:01.047Z,17.60
2019-04-06T08:48:29.853Z,17.70
2019-04-06T08:58:12.136Z,18.60
2019-04-06T09:00:40.827Z,19.40
2019-04-06T09:05:44.552Z,19.40
2019-04-06T09:08:13.426Z,20.00
2019-04-06T09:10:42.126Z,19.70
2019-04-06T09:13:11.279Z,19.60
2019-04-06T09:15:40.054Z,19.60
2019-04-06T09:18:09.796Z,19.80
2019-04-06T09:20:39.532Z,20.30
2019-04-06T09:23:09.297Z,19.60
2019-04-06T09:25:39.302Z,19.20
2019-04-06T09:28:09.547Z,18.40
2019-04-06T09:30:39.652Z,17.90
2019-04-06T09:33:09.518Z,17.60
2019-04-06T09:35:39.347Z,17.90
2019-04-06T09:38:10.724Z,18.40
2019-04-06T09:40:40.383Z,18.40
2019-04-06T09:43:10.311Z,18.30
2019-04-06T09:45:44.949Z,18.00
2019-04-06T09:48:28.952Z,17.70
2019-04-06T09:51:12.079Z,17.40
2019-04-06T09:54:05.589Z,17.00
2019-04-06T09:56:33.029Z,16.50
2019-04-06T09:59:21.023Z,16.20
2019-04-06T10:02:07.496Z,16.20
2019-04-06T10:04:41.836Z,16.10
2019-04-06T10:07:29.443Z,15.90
2019-04-06T10:10:03.770Z,16.10
2019-04-06T10:12:41.270Z,16.20
2019-04-06T10:15:15.781Z,16.30
2019-04-06T10:17:47.276Z,16.50
2019-04-06T10:20:21.400Z,16.40
2019-04-06T10:22:55.648Z,16.90
2019-04-06T10:25:43.085Z,17.60
2019-04-06T10:28:23.432Z,17.70
2019-04-06T10:31:06.975Z,17.90
2019-04-06T10:33:41.156Z,17.50
2019-04-06T10:36:15.192Z,17.50
2019-04-06T10:38:55.547Z,17.20
2019-04-06T10:41:29.642Z,17.20
2019-04-06T10:44:13.305Z,17.60
2019-04-06T10:46:44.879Z,18.20
2019-04-06T10:49:32.778Z,18.40
2019-04-06T10:52:10.227Z,18.50
2019-04-06T10:54:47.970Z,18.60
2019-04-06T10:57:22.597Z,18.40
2019-04-06T11:00:10.363Z,18.80
2019-04-06T11:02:44.621Z,19.10
2019-04-06T11:05:28.132Z,19.30
2019-04-06T11:07:59.507Z,19.20
2019-04-06T11:10:33.445Z,18.80
2019-04-06T11:13:10.301Z,18.40
2019-04-06T11:15:58.035Z,18.00
2019-04-06T11:18:38.644Z,17.70
2019-04-06T11:21:12.855Z,17.80
2019-04-06T11:23:46.731Z,17.70
2019-04-06T11:26:29.739Z,17.60
2019-04-06T11:29:01.141Z,17.60
2019-04-06T11:31:34.876Z,17.40
2019-04-06T11:34:15.196Z,17.50
2019-04-06T11:37:03.122Z,17.60
2019-04-06T11:39:37.033Z,17.60
2019-04-06T11:42:11.059Z,17.70
2019-04-06T11:44:51.310Z,18.30
2019-04-06T11:47:22.658Z,18.30
2019-04-06T11:49:54.201Z,18.10
2019-04-06T11:52:40.463Z,18.50
2019-04-06T11:55:18.188Z,18.50
2019-04-06T11:58:06.496Z,18.90
2019-04-06T12:00:37.960Z,19.20
2019-04-06T12:03:09.251Z,19.20
2019-04-06T12:05:46.333Z,19.20
2019-04-06T12:08:32.857Z,18.90
2019-04-06T12:11:09.884Z,18.90
2019-04-06T12:13:47.038Z,18.80
2019-04-06T12:16:21.341Z,18.80
2019-04-06T12:18:52.774Z,19.00
2019-04-06T12:21:33.218Z,18.90
2019-04-06T12:24:07.332Z,18.70
2019-04-06T12:26:44.415Z,18.70
2019-04-06T12:29:32.379Z,19.10
2019-04-06T12:32:20.192Z,18.90
2019-04-06T12:34:51.738Z,18.40
2019-04-06T12:37:28.866Z,18.30
2019-04-06T12:40:05.981Z,18.30
2019-04-06T12:42:42.917Z,18.10
2019-04-06T12:45:30.389Z,18.00
2019-04-06T12:48:16.442Z,17.80
2019-04-06T12:50:50.839Z,17.70
2019-04-06T12:53:38.496Z,17.70
2019-04-06T12:56:15.489Z,17.70
2019-04-06T12:58:52.688Z,17.60
2019-04-06T13:01:24.093Z,18.00
2019-04-06T13:04:13.314Z,18.00
2019-04-06T13:06:47.323Z,17.70
2019-04-06T13:09:54.041Z,17.70
2019-04-06T13:12:37.260Z,18.00
2019-04-06T13:15:12.387Z,17.80
2019-04-06T13:17:52.316Z,17.70
2019-04-06T13:20:38.902Z,17.90
2019-04-06T13:23:10.699Z,18.00
2019-04-06T13:25:47.930Z,17.80
2019-04-06T13:28:19.288Z,17.70
2019-04-06T13:31:01.356Z,17.70
2019-04-06T13:33:36.142Z,17.60
2019-04-06T13:36:10.378Z,17.70
2019-04-06T13:38:58.060Z,17.70
2019-04-06T13:41:31.864Z,17.50
2019-04-06T13:44:03.126Z,17.40
2019-04-06T13:46:34.446Z,17.30
2019-04-06T13:49:08.888Z,17.30
2019-04-06T13:51:42.757Z,17.30
2019-04-06T13:54:30.474Z,17.40
2019-04-06T13:57:07.367Z,17.50
2019-04-06T13:59:56.986Z,17.40
2019-04-06T14:02:34.862Z,17.40
2019-04-06T14:05:08.429Z,17.50
2019-04-06T14:07:39.719Z,17.50
2019-04-06T14:10:11.382Z,17.50
2019-04-06T14:12:55.121Z,17.50
2019-04-06T14:15:26.369Z,17.50
2019-04-06T14:17:57.749Z,17.60
2019-04-06T14:20:31.540Z,17.50
2019-04-06T14:23:06.130Z,17.70
2019-04-06T14:25:37.989Z,17.90
2019-04-06T14:28:12.056Z,17.90
2019-04-06T14:30:48.980Z,17.80
2019-04-06T14:33:29.304Z,17.80
2019-04-06T14:36:09.310Z,17.90
2019-04-06T14:38:43.099Z,18.00
2019-04-06T14:41:16.462Z,18.00
2019-04-06T14:43:53.501Z,18.00
2019-04-06T14:46:41.409Z,18.20
2019-04-06T14:49:28.517Z,18.30
2019-04-06T14:51:51.174Z,18.50
2019-04-06T14:54:22.896Z,18.50
2019-04-06T14:57:11.326Z,18.50
2019-04-06T15:00:01.095Z,18.30
2019-04-06T15:02:35.091Z,18.10
2019-04-06T15:05:23.930Z,17.90
2019-04-06T15:08:00.868Z,17.70
2019-04-06T15:10:47.544Z,17.70
2019-04-06T15:13:37.099Z,17.70
2019-04-06T15:16:36.772Z,17.70
2019-04-06T15:19:10.606Z,17.50
2019-04-06T15:21:48.120Z,17.50
2019-04-06T15:24:31.489Z,17.50
2019-04-06T15:27:08.768Z,17.60
2019-04-06T15:29:49.357Z,17.80
2019-04-06T15:32:20.963Z,17.90
2019-04-06T15:34:55.568Z,18.10
2019-04-06T15:37:52.546Z,18.20
2019-04-06T15:40:29.955Z,18.30
2019-04-06T15:43:06.892Z,18.40
2019-04-06T15:45:56.282Z,18.50
2019-04-06T15:48:38.448Z,18.60
2019-04-06T15:51:09.556Z,18.60
2019-04-06T15:53:55.994Z,18.70
2019-04-06T15:56:42.343Z,18.60
2019-04-06T15:59:20.378Z,18.50
2019-04-06T16:02:09.887Z,18.40
2019-04-06T16:04:41.360Z,18.20
2019-04-06T16:07:32.542Z,18.10
2019-04-06T16:10:09.952Z,18.00
2019-04-06T16:12:41.484Z,17.90
2019-04-06T16:15:12.939Z,18.00
2019-04-06T16:17:49.982Z,17.90
2019-04-06T16:20:38.401Z,17.90
2019-04-06T16:23:10.207Z,17.90
2019-04-06T16:25:58.361Z,17.60
2019-04-06T16:28:32.574Z,17.50
2019-04-06T16:31:04.165Z,17.40
2019-04-06T16:33:47.370Z,17.40
2019-04-06T16:36:21.370Z,17.20
2019-04-06T16:39:04.943Z,17.20
2019-04-06T16:44:49.181Z,17.10
2019-04-06T16:47:20.575Z,17.00
2019-04-06T16:49:57.927Z,16.90
2019-04-06T16:52:32.390Z,16.70
2019-04-06T16:55:16.032Z,16.60
2019-04-06T16:58:04.074Z,16.50
2019-04-06T17:00:35.430Z,16.30
2019-04-06T17:03:07.200Z,16.30
2019-04-06T17:05:41.751Z,16.30
2019-04-06T17:08:16.498Z,16.30
2019-04-06T17:11:03.785Z,16.30
2019-04-06T17:13:35.421Z,16.30
2019-04-06T17:16:15.816Z,16.20
2019-04-06T17:19:02.349Z,16.20
2019-04-06T17:21:45.517Z,16.10
2019-04-06T17:24:35.162Z,15.90
2019-04-06T17:27:06.415Z,15.80
2019-04-06T17:29:40.488Z,15.70
2019-04-06T17:32:14.574Z,15.50
2019-04-06T17:34:54.881Z,15.40
2019-04-06T17:37:24.851Z,15.30
2019-04-06T17:39:59.432Z,15.20
2019-04-06T17:42:31.286Z,15.20
2019-04-06T17:45:02.718Z,15.00
2019-04-06T17:47:39.865Z,14.90
2019-04-06T17:50:20.230Z,14.70
2019-04-06T17:52:54.746Z,14.60
2019-04-06T17:55:32.251Z,14.50
2019-04-06T17:58:06.371Z,14.40
2019-04-06T18:00:47.269Z,14.20
2019-04-06T18:03:25.196Z,14.20
2019-04-06T18:05:56.969Z,14.00
2019-04-06T18:08:46.766Z,13.90
2019-04-06T18:11:27.149Z,13.80
2019-04-06T18:13:56.903Z,13.60
2019-04-06T18:16:28.840Z,13.40
2019-04-06T18:18:58.773Z,13.30
2019-04-06T18:21:28.896Z,13.10
2019-04-06T18:23:59.068Z,13.10
2019-04-06T18:26:28.715Z,13.10
2019-04-06T18:29:17.836Z,13.00
2019-04-06T18:32:07.348Z,12.90
2019-04-06T18:34:36.963Z,12.90
2019-04-06T18:37:20.078Z,12.80
2019-04-06T18:40:11.404Z,12.60
2019-04-06T18:42:41.755Z,12.50
2019-04-06T18:45:11.881Z,12.50
2019-04-06T18:47:41.544Z,12.40
2019-04-06T18:50:12.873Z,12.30
2019-04-06T18:52:43.112Z,12.40
2019-04-06T18:55:13.019Z,12.30
2019-04-06T18:57:43.520Z,12.20
2019-04-06T19:00:13.966Z,12.10
2019-04-06T19:02:43.774Z,12.00
2019-04-06T19:05:12.881Z,11.90
2019-04-06T19:07:42.575Z,11.90
2019-04-06T19:10:13.328Z,11.90
2019-04-06T19:12:43.150Z,11.80
2019-04-06T19:15:13.621Z,11.70
2019-04-06T19:17:43.958Z,11.60
2019-04-06T19:20:14.685Z,11.50
2019-04-06T19:22:44.486Z,11.50
2019-04-06T19:25:14.452Z,11.50
2019-04-06T19:27:44.361Z,11.50
2019-04-06T19:30:15.838Z,11.40
2019-04-06T19:32:45.750Z,11.30
2019-04-06T19:35:15.409Z,11.30
2019-04-06T19:37:44.271Z,11.20
2019-04-06T19:40:13.451Z,11.20
2019-04-06T19:42:42.588Z,11.10
2019-04-06T19:45:11.474Z,11.10
2019-04-06T19:47:40.803Z,11.00
2019-04-06T19:50:09.860Z,11.00
2019-04-06T19:52:39.250Z,10.90
2019-04-06T19:55:10.064Z,10.90
2019-04-06T19:57:39.081Z,10.90
2019-04-06T20:00:08.481Z,10.80
2019-04-06T20:02:37.312Z,10.80
2019-04-06T20:05:08.735Z,10.70
2019-04-06T20:07:38.114Z,10.70
2019-04-06T20:10:07.236Z,10.60
2019-04-06T20:12:55.290Z,10.60
2019-04-06T20:15:24.410Z,10.50
2019-04-06T20:17:53.163Z,10.40
2019-04-06T20:20:22.312Z,10.40
2019-04-06T20:22:51.579Z,10.30
2019-04-06T20:25:20.494Z,10.30
2019-04-06T20:27:49.780Z,10.20
2019-04-06T20:30:18.678Z,10.20
2019-04-06T20:32:48.436Z,10.10
2019-04-06T20:35:17.436Z,10.10
2019-04-06T20:37:46.671Z,10.00
2019-04-06T20:40:16.413Z,10.00
2019-04-06T20:42:45.335Z,9.90
2019-04-06T20:45:14.174Z,9.80
2019-04-06T20:47:43.324Z,9.80
2019-04-06T20:50:12.135Z,9.70
2019-04-06T20:52:41.586Z,9.70
2019-04-06T20:55:10.427Z,9.70
2019-04-06T20:57:39.497Z,9.60
2019-04-06T21:00:09.718Z,9.50
2019-04-06T21:02:38.518Z,9.50
2019-04-06T21:05:07.854Z,9.50
2019-04-06T21:07:37.028Z,9.50
2019-04-06T21:10:07.365Z,9.40
2019-04-06T21:12:36.884Z,9.40
2019-04-06T21:15:17.624Z,9.30
2019-04-06T21:17:39.839Z,9.30
2019-04-06T21:20:08.794Z,9.30
2019-04-06T21:22:37.728Z,9.20
2019-04-06T21:25:07.099Z,9.20
2019-04-06T21:27:36.184Z,9.20
2019-04-06T21:30:06.322Z,9.20
2019-04-06T21:32:35.006Z,9.20
2019-04-06T21:35:05.497Z,9.20
2019-04-06T21:37:34.580Z,9.10
2019-04-06T21:40:04.135Z,9.10
2019-04-06T21:42:33.087Z,9.10
2019-04-06T21:45:01.922Z,9.10
2019-04-06T21:47:30.829Z,9.00
2019-04-06T21:50:00.235Z,9.00
2019-04-06T21:52:29.178Z,9.00
2019-04-06T21:54:58.044Z,8.90
2019-04-06T21:57:27.278Z,8.90
2019-04-06T21:59:56.322Z,8.90
2019-04-06T22:02:25.167Z,8.80
2019-04-06T22:04:54.491Z,8.80
2019-04-06T22:07:23.333Z,8.80
2019-04-06T22:09:52.105Z,8.70
2019-04-06T22:12:20.979Z,8.80
2019-04-06T22:14:50.615Z,8.80
2019-04-06T22:17:19.701Z,8.80
2019-04-06T22:19:48.349Z,8.80
2019-04-06T22:22:16.985Z,8.90
2019-04-06T22:24:46.304Z,9.00
2019-04-06T22:27:15.922Z,9.00
2019-04-06T22:29:45.373Z,9.10
2019-04-06T22:32:14.566Z,9.10
2019-04-06T22:34:43.260Z,9.10
2019-04-06T22:37:11.962Z,9.30
2019-04-06T22:39:41.059Z,9.30
2019-04-06T22:42:09.916Z,9.40
2019-04-06T22:44:38.746Z,9.40
2019-04-06T22:47:07.502Z,9.50
2019-04-06T22:49:36.249Z,9.50
2019-04-06T22:52:05.109Z,9.60
2019-04-06T22:54:34.470Z,9.60
2019-04-06T22:57:03.488Z,9.60
2019-04-06T22:59:32.518Z,9.70
2019-04-06T23:02:01.538Z,9.70
2019-04-06T23:04:48.527Z,9.70
2019-04-06T23:07:16.657Z,9.80
2019-04-06T23:09:46.570Z,9.80
2019-04-06T23:12:15.624Z,9.80
2019-04-06T23:14:44.460Z,9.90
2019-04-06T23:17:13.392Z,10.00
2019-04-06T23:19:42.130Z,10.00
2019-04-06T23:22:11.484Z,10.00
2019-04-06T23:24:40.725Z,10.10
2019-04-06T23:27:09.898Z,10.10
2019-04-06T23:29:39.281Z,10.10
2019-04-06T23:32:08.044Z,10.20
2019-04-06T23:34:36.679Z,10.10
2019-04-06T23:37:06.082Z,10.10
2019-04-06T23:39:34.971Z,10.10
2019-04-06T23:42:03.821Z,10.10
2019-04-06T23:44:32.984Z,10.10
2019-04-06T23:47:02.031Z,10.10
2019-04-06T23:49:30.674Z,10.10
2019-04-06T23:51:59.455Z,10.10
2019-04-06T23:54:28.751Z,10.10
2019-04-06T23:56:57.939Z,10.10
2019-04-06T23:59:27.142Z,10.10
